sensor_id;sensor_type;location;lat;lon;timestamp;temperature;humidity
39525;DHT22;25203;50.754;6.978;2022-08-03T00:00:43;18.10;99.90
39525;DHT22;25203;50.754;6.978;2022-08-03T00:02:44;18.10;99.90
39525;DHT22;25203;50.754;6.978;2022-08-03T00:04:45;18.00;99.90
39525;DHT22;25203;50.754;6.978;2022-08-03T00:06:45;18.00;99.90
39525;DHT22;25203;50.754;6.978;2022-08-03T00:08:46;17.90;99.90
39525;DHT22;25203;50.754;6.978;2022-08-03T00:10:47;17.90;99.90
39525;DHT22;25203;50.754;6.978;2022-08-03T00:12:47;17.90;99.90
39525;DHT22;25203;50.754;6.978;2022-08-03T00:14:48;17.80;99.90
39525;DHT22;25203;50.754;6.978;2022-08-03T00:16:49;17.80;99.90
39525;DHT22;25203;50.754;6.978;2022-08-03T00:18:49;17.80;99.90
39525;DHT22;25203;50.754;6.978;2022-08-03T00:20:50;17.70;99.90
39525;DHT22;25203;50.754;6.978;2022-08-03T00:22:51;17.70;99.90
39525;DHT22;25203;50.754;6.978;2022-08-03T00:24:51;17.70;99.90
39525;DHT22;25203;50.754;6.978;2022-08-03T00:26:52;17.70;99.90
39525;DHT22;25203;50.754;6.978;2022-08-03T00:28:53;17.60;99.90
39525;DHT22;25203;50.754;6.978;2022-08-03T00:30:53;17.60;99.90
39525;DHT22;25203;50.754;6.978;2022-08-03T00:32:58;17.60;99.90
39525;DHT22;25203;50.754;6.978;2022-08-03T00:34:59;17.60;99.90
39525;DHT22;25203;50.754;6.978;2022-08-03T00:36:59;17.60;99.90
39525;DHT22;25203;50.754;6.978;2022-08-03T00:39:00;17.60;99.90
39525;DHT22;25203;50.754;6.978;2022-08-03T00:41:01;17.60;99.90
39525;DHT22;25203;50.754;6.978;2022-08-03T00:43:04;17.50;99.90
39525;DHT22;25203;50.754;6.978;2022-08-03T00:45:05;17.50;99.90
39525;DHT22;25203;50.754;6.978;2022-08-03T00:47:07;17.50;99.90
39525;DHT22;25203;50.754;6.978;2022-08-03T00:49:07;17.50;99.90
39525;DHT22;25203;50.754;6.978;2022-08-03T00:51:08;17.50;99.90
39525;DHT22;25203;50.754;6.978;2022-08-03T00:53:10;17.50;99.90
39525;DHT22;25203;50.754;6.978;2022-08-03T00:55:14;17.50;99.90
39525;DHT22;25203;50.754;6.978;2022-08-03T00:57:15;17.50;99.90
39525;DHT22;25203;50.754;6.978;2022-08-03T00:59:15;17.50;99.90
39525;DHT22;25203;50.754;6.978;2022-08-03T01:01:17;17.50;99.90
39525;DHT22;25203;50.754;6.978;2022-08-03T01:03:18;17.50;99.90
39525;DHT22;25203;50.754;6.978;2022-08-03T01:05:20;17.50;99.90
39525;DHT22;25203;50.754;6.978;2022-08-03T01:07:31;17.50;99.90
39525;DHT22;25203;50.754;6.978;2022-08-03T01:12:13;17.50;99.90
39525;DHT22;25203;50.754;6.978;2022-08-03T01:14:21;17.40;99.90
39525;DHT22;25203;50.754;6.978;2022-08-03T01:16:35;17.40;99.90
39525;DHT22;25203;50.754;6.978;2022-08-03T01:18:51;17.40;99.90
39525;DHT22;25203;50.754;6.978;2022-08-03T01:20:55;17.40;99.90
39525;DHT22;25203;50.754;6.978;2022-08-03T01:23:42;17.50;99.90
39525;DHT22;25203;50.754;6.978;2022-08-03T01:28:30;17.40;99.90
39525;DHT22;25203;50.754;6.978;2022-08-03T01:30:35;17.40;99.90
39525;DHT22;25203;50.754;6.978;2022-08-03T01:32:56;17.40;99.90
39525;DHT22;25203;50.754;6.978;2022-08-03T01:35:38;17.30;99.90
39525;DHT22;25203;50.754;6.978;2022-08-03T01:37:46;17.30;99.90
39525;DHT22;25203;50.754;6.978;2022-08-03T01:39:49;17.30;99.90
39525;DHT22;25203;50.754;6.978;2022-08-03T01:41:55;17.30;99.90
39525;DHT22;25203;50.754;6.978;2022-08-03T01:44:02;17.30;99.90
39525;DHT22;25203;50.754;6.978;2022-08-03T01:46:04;17.30;99.90
39525;DHT22;25203;50.754;6.978;2022-08-03T01:48:06;17.30;99.90
39525;DHT22;25203;50.754;6.978;2022-08-03T01:50:08;17.20;99.90
39525;DHT22;25203;50.754;6.978;2022-08-03T01:52:10;17.20;99.90
39525;DHT22;25203;50.754;6.978;2022-08-03T01:54:12;17.20;99.90
39525;DHT22;25203;50.754;6.978;2022-08-03T01:56:15;17.20;99.90
39525;DHT22;25203;50.754;6.978;2022-08-03T01:58:18;17.10;99.90
39525;DHT22;25203;50.754;6.978;2022-08-03T02:00:20;17.10;99.90
39525;DHT22;25203;50.754;6.978;2022-08-03T02:02:21;17.10;99.90
39525;DHT22;25203;50.754;6.978;2022-08-03T02:04:24;17.10;99.90
39525;DHT22;25203;50.754;6.978;2022-08-03T02:06:28;17.10;99.90
39525;DHT22;25203;50.754;6.978;2022-08-03T02:08:30;17.10;99.90
39525;DHT22;25203;50.754;6.978;2022-08-03T02:10:32;17.10;99.90
39525;DHT22;25203;50.754;6.978;2022-08-03T02:12:36;17.10;99.90
39525;DHT22;25203;50.754;6.978;2022-08-03T02:14:39;17.10;99.90
39525;DHT22;25203;50.754;6.978;2022-08-03T02:16:42;17.10;99.90
39525;DHT22;25203;50.754;6.978;2022-08-03T02:18:44;17.10;99.90
39525;DHT22;25203;50.754;6.978;2022-08-03T02:20:46;17.10;99.90
39525;DHT22;25203;50.754;6.978;2022-08-03T02:22:47;17.20;99.90
39525;DHT22;25203;50.754;6.978;2022-08-03T02:24:47;17.10;99.90
39525;DHT22;25203;50.754;6.978;2022-08-03T02:26:50;17.10;99.90
39525;DHT22;25203;50.754;6.978;2022-08-03T02:28:52;17.10;99.90
39525;DHT22;25203;50.754;6.978;2022-08-03T02:30:55;17.10;99.90
39525;DHT22;25203;50.754;6.978;2022-08-03T02:32:57;17.00;99.90
39525;DHT22;25203;50.754;6.978;2022-08-03T02:35:00;17.00;99.90
39525;DHT22;25203;50.754;6.978;2022-08-03T02:37:03;16.90;99.90
39525;DHT22;25203;50.754;6.978;2022-08-03T02:39:04;16.80;99.90
39525;DHT22;25203;50.754;6.978;2022-08-03T02:41:21;16.80;99.90
39525;DHT22;25203;50.754;6.978;2022-08-03T02:43:24;16.80;99.90
39525;DHT22;25203;50.754;6.978;2022-08-03T02:45:26;16.80;99.90
39525;DHT22;25203;50.754;6.978;2022-08-03T02:47:28;16.80;99.90
39525;DHT22;25203;50.754;6.978;2022-08-03T02:49:30;16.80;99.90
39525;DHT22;25203;50.754;6.978;2022-08-03T02:51:34;16.80;99.90
39525;DHT22;25203;50.754;6.978;2022-08-03T02:53:36;16.80;99.90
39525;DHT22;25203;50.754;6.978;2022-08-03T02:55:38;16.70;99.90
39525;DHT22;25203;50.754;6.978;2022-08-03T02:57:39;16.70;99.90
39525;DHT22;25203;50.754;6.978;2022-08-03T02:59:41;16.60;99.90
39525;DHT22;25203;50.754;6.978;2022-08-03T03:01:43;16.60;99.90
39525;DHT22;25203;50.754;6.978;2022-08-03T03:03:45;16.60;99.90
39525;DHT22;25203;50.754;6.978;2022-08-03T03:05:46;16.50;99.90
39525;DHT22;25203;50.754;6.978;2022-08-03T03:07:48;16.50;99.90
39525;DHT22;25203;50.754;6.978;2022-08-03T03:09:49;16.50;99.90
39525;DHT22;25203;50.754;6.978;2022-08-03T03:11:51;16.50;99.90
39525;DHT22;25203;50.754;6.978;2022-08-03T03:13:53;16.50;99.90
39525;DHT22;25203;50.754;6.978;2022-08-03T03:15:57;16.60;99.90
39525;DHT22;25203;50.754;6.978;2022-08-03T03:17:59;16.40;99.90
39525;DHT22;25203;50.754;6.978;2022-08-03T03:20:02;16.50;99.90
39525;DHT22;25203;50.754;6.978;2022-08-03T03:22:03;16.50;99.90
39525;DHT22;25203;50.754;6.978;2022-08-03T03:24:07;16.40;99.90
39525;DHT22;25203;50.754;6.978;2022-08-03T03:26:09;16.40;99.90
39525;DHT22;25203;50.754;6.978;2022-08-03T03:28:12;16.30;99.90
39525;DHT22;25203;50.754;6.978;2022-08-03T03:30:14;16.30;99.90
39525;DHT22;25203;50.754;6.978;2022-08-03T03:32:14;16.30;99.90
39525;DHT22;25203;50.754;6.978;2022-08-03T03:34:15;16.30;99.90
39525;DHT22;25203;50.754;6.978;2022-08-03T03:36:17;16.20;99.90
39525;DHT22;25203;50.754;6.978;2022-08-03T03:38:18;16.20;99.90
39525;DHT22;25203;50.754;6.978;2022-08-03T03:40:20;16.10;99.90
39525;DHT22;25203;50.754;6.978;2022-08-03T03:42:21;16.10;99.90
39525;DHT22;25203;50.754;6.978;2022-08-03T03:44:26;16.00;99.90
39525;DHT22;25203;50.754;6.978;2022-08-03T03:46:28;16.00;99.90
39525;DHT22;25203;50.754;6.978;2022-08-03T03:48:28;16.00;99.90
39525;DHT22;25203;50.754;6.978;2022-08-03T03:50:30;16.00;99.90
39525;DHT22;25203;50.754;6.978;2022-08-03T03:52:32;15.90;99.90
39525;DHT22;25203;50.754;6.978;2022-08-03T03:54:44;15.90;99.90
39525;DHT22;25203;50.754;6.978;2022-08-03T03:56:44;15.80;99.90
39525;DHT22;25203;50.754;6.978;2022-08-03T03:58:45;15.80;99.90
39525;DHT22;25203;50.754;6.978;2022-08-03T04:00:46;15.80;99.90
39525;DHT22;25203;50.754;6.978;2022-08-03T04:02:47;15.70;99.90
39525;DHT22;25203;50.754;6.978;2022-08-03T04:04:47;15.70;99.90
39525;DHT22;25203;50.754;6.978;2022-08-03T04:07:06;15.70;99.90
39525;DHT22;25203;50.754;6.978;2022-08-03T04:09:26;15.70;99.90
39525;DHT22;25203;50.754;6.978;2022-08-03T04:11:57;15.70;99.90
39525;DHT22;25203;50.754;6.978;2022-08-03T04:14:08;15.70;99.90
39525;DHT22;25203;50.754;6.978;2022-08-03T04:16:13;15.80;99.90
39525;DHT22;25203;50.754;6.978;2022-08-03T04:18:16;15.80;99.90
39525;DHT22;25203;50.754;6.978;2022-08-03T04:20:19;15.80;99.90
39525;DHT22;25203;50.754;6.978;2022-08-03T04:22:24;15.90;99.90
39525;DHT22;25203;50.754;6.978;2022-08-03T04:24:39;15.90;99.90
39525;DHT22;25203;50.754;6.978;2022-08-03T04:26:42;15.90;99.90
39525;DHT22;25203;50.754;6.978;2022-08-03T04:28:44;16.00;99.90
39525;DHT22;25203;50.754;6.978;2022-08-03T04:30:47;16.00;99.90
39525;DHT22;25203;50.754;6.978;2022-08-03T04:32:50;16.10;99.90
39525;DHT22;25203;50.754;6.978;2022-08-03T04:34:51;16.10;99.90
39525;DHT22;25203;50.754;6.978;2022-08-03T04:36:58;16.20;99.90
39525;DHT22;25203;50.754;6.978;2022-08-03T04:39:06;16.20;99.90
39525;DHT22;25203;50.754;6.978;2022-08-03T04:41:07;16.20;99.90
39525;DHT22;25203;50.754;6.978;2022-08-03T04:43:10;16.30;99.90
39525;DHT22;25203;50.754;6.978;2022-08-03T04:45:12;16.40;99.90
39525;DHT22;25203;50.754;6.978;2022-08-03T04:47:14;16.50;99.90
39525;DHT22;25203;50.754;6.978;2022-08-03T04:49:15;16.50;99.90
39525;DHT22;25203;50.754;6.978;2022-08-03T04:51:16;16.50;99.90
39525;DHT22;25203;50.754;6.978;2022-08-03T04:53:17;16.60;99.90
39525;DHT22;25203;50.754;6.978;2022-08-03T04:55:27;16.60;99.90
39525;DHT22;25203;50.754;6.978;2022-08-03T04:57:28;16.60;99.90
39525;DHT22;25203;50.754;6.978;2022-08-03T04:59:29;16.70;99.90
39525;DHT22;25203;50.754;6.978;2022-08-03T05:01:29;16.70;99.90
39525;DHT22;25203;50.754;6.978;2022-08-03T05:03:30;16.70;99.90
39525;DHT22;25203;50.754;6.978;2022-08-03T05:05:31;16.70;99.90
39525;DHT22;25203;50.754;6.978;2022-08-03T05:07:32;16.70;99.90
39525;DHT22;25203;50.754;6.978;2022-08-03T05:09:32;16.70;99.90
39525;DHT22;25203;50.754;6.978;2022-08-03T05:11:34;16.70;99.90
39525;DHT22;25203;50.754;6.978;2022-08-03T05:13:37;16.80;99.90
39525;DHT22;25203;50.754;6.978;2022-08-03T05:15:38;16.90;99.90
39525;DHT22;25203;50.754;6.978;2022-08-03T05:17:39;16.90;99.90
39525;DHT22;25203;50.754;6.978;2022-08-03T05:19:39;16.90;99.90
39525;DHT22;25203;50.754;6.978;2022-08-03T05:21:40;17.00;99.90
39525;DHT22;25203;50.754;6.978;2022-08-03T05:23:41;17.10;99.90
39525;DHT22;25203;50.754;6.978;2022-08-03T05:25:42;17.20;99.90
39525;DHT22;25203;50.754;6.978;2022-08-03T05:27:42;17.30;99.90
39525;DHT22;25203;50.754;6.978;2022-08-03T05:29:52;17.40;99.90
39525;DHT22;25203;50.754;6.978;2022-08-03T05:31:53;17.50;99.90
39525;DHT22;25203;50.754;6.978;2022-08-03T05:33:53;17.60;99.90
39525;DHT22;25203;50.754;6.978;2022-08-03T05:35:54;17.80;99.90
39525;DHT22;25203;50.754;6.978;2022-08-03T05:37:55;17.90;99.90
39525;DHT22;25203;50.754;6.978;2022-08-03T05:39:55;18.10;99.90
39525;DHT22;25203;50.754;6.978;2022-08-03T05:41:56;18.30;99.90
39525;DHT22;25203;50.754;6.978;2022-08-03T05:43:56;18.40;99.90
39525;DHT22;25203;50.754;6.978;2022-08-03T05:45:57;18.60;99.90
39525;DHT22;25203;50.754;6.978;2022-08-03T05:48:00;18.80;99.90
39525;DHT22;25203;50.754;6.978;2022-08-03T05:50:00;18.90;99.90
39525;DHT22;25203;50.754;6.978;2022-08-03T05:52:01;19.10;99.90
39525;DHT22;25203;50.754;6.978;2022-08-03T05:54:02;19.20;99.90
39525;DHT22;25203;50.754;6.978;2022-08-03T05:56:03;19.40;99.90
39525;DHT22;25203;50.754;6.978;2022-08-03T05:58:03;19.60;99.90
39525;DHT22;25203;50.754;6.978;2022-08-03T06:00:07;19.70;99.90
39525;DHT22;25203;50.754;6.978;2022-08-03T06:02:08;19.90;99.90
39525;DHT22;25203;50.754;6.978;2022-08-03T06:04:08;20.10;99.90
39525;DHT22;25203;50.754;6.978;2022-08-03T06:06:09;20.20;99.90
39525;DHT22;25203;50.754;6.978;2022-08-03T06:08:10;20.30;99.90
39525;DHT22;25203;50.754;6.978;2022-08-03T06:10:11;20.50;99.90
39525;DHT22;25203;50.754;6.978;2022-08-03T06:12:12;20.50;99.90
39525;DHT22;25203;50.754;6.978;2022-08-03T06:14:12;20.60;99.90
39525;DHT22;25203;50.754;6.978;2022-08-03T06:16:13;20.70;99.90
39525;DHT22;25203;50.754;6.978;2022-08-03T06:18:13;20.90;99.90
39525;DHT22;25203;50.754;6.978;2022-08-03T06:20:18;21.00;99.90
39525;DHT22;25203;50.754;6.978;2022-08-03T06:22:19;21.20;99.90
39525;DHT22;25203;50.754;6.978;2022-08-03T06:24:20;21.40;99.90
39525;DHT22;25203;50.754;6.978;2022-08-03T06:26:21;21.60;99.90
39525;DHT22;25203;50.754;6.978;2022-08-03T06:28:22;21.80;99.90
39525;DHT22;25203;50.754;6.978;2022-08-03T06:30:22;22.00;99.90
39525;DHT22;25203;50.754;6.978;2022-08-03T06:32:23;22.20;99.90
39525;DHT22;25203;50.754;6.978;2022-08-03T06:34:23;22.50;99.90
39525;DHT22;25203;50.754;6.978;2022-08-03T06:36:24;22.70;99.90
39525;DHT22;25203;50.754;6.978;2022-08-03T06:38:30;22.90;99.90
39525;DHT22;25203;50.754;6.978;2022-08-03T06:40:34;23.20;99.90
39525;DHT22;25203;50.754;6.978;2022-08-03T06:42:39;23.50;99.90
39525;DHT22;25203;50.754;6.978;2022-08-03T06:44:40;23.70;99.90
39525;DHT22;25203;50.754;6.978;2022-08-03T06:46:40;23.80;99.60
39525;DHT22;25203;50.754;6.978;2022-08-03T06:48:42;24.00;98.40
39525;DHT22;25203;50.754;6.978;2022-08-03T06:50:43;24.20;98.40
39525;DHT22;25203;50.754;6.978;2022-08-03T06:52:44;24.30;98.20
39525;DHT22;25203;50.754;6.978;2022-08-03T06:54:44;24.50;97.70
39525;DHT22;25203;50.754;6.978;2022-08-03T06:56:45;24.70;97.10
39525;DHT22;25203;50.754;6.978;2022-08-03T06:58:45;24.80;96.10
39525;DHT22;25203;50.754;6.978;2022-08-03T07:00:46;24.90;95.90
39525;DHT22;25203;50.754;6.978;2022-08-03T07:02:47;25.00;96.00
39525;DHT22;25203;50.754;6.978;2022-08-03T07:04:48;24.90;95.00
39525;DHT22;25203;50.754;6.978;2022-08-03T07:06:49;25.10;96.00
39525;DHT22;25203;50.754;6.978;2022-08-03T07:08:49;25.20;95.10
39525;DHT22;25203;50.754;6.978;2022-08-03T07:10:50;25.30;94.90
39525;DHT22;25203;50.754;6.978;2022-08-03T07:12:51;25.40;95.00
39525;DHT22;25203;50.754;6.978;2022-08-03T07:14:51;25.70;95.40
39525;DHT22;25203;50.754;6.978;2022-08-03T07:16:52;26.00;94.30
39525;DHT22;25203;50.754;6.978;2022-08-03T07:18:53;26.20;92.90
39525;DHT22;25203;50.754;6.978;2022-08-03T07:20:54;26.40;92.90
39525;DHT22;25203;50.754;6.978;2022-08-03T07:22:54;26.60;91.90
39525;DHT22;25203;50.754;6.978;2022-08-03T07:24:55;26.80;92.00
39525;DHT22;25203;50.754;6.978;2022-08-03T07:26:56;26.90;91.20
39525;DHT22;25203;50.754;6.978;2022-08-03T07:28:56;27.10;90.80
39525;DHT22;25203;50.754;6.978;2022-08-03T07:30:57;27.10;90.10
39525;DHT22;25203;50.754;6.978;2022-08-03T07:32:58;27.30;90.10
39525;DHT22;25203;50.754;6.978;2022-08-03T07:34:59;27.40;89.30
39525;DHT22;25203;50.754;6.978;2022-08-03T07:36:59;27.60;88.90
39525;DHT22;25203;50.754;6.978;2022-08-03T07:39:00;27.70;88.60
39525;DHT22;25203;50.754;6.978;2022-08-03T07:41:01;27.90;86.50
39525;DHT22;25203;50.754;6.978;2022-08-03T07:43:02;27.90;86.10
39525;DHT22;25203;50.754;6.978;2022-08-03T07:45:04;28.10;85.10
39525;DHT22;25203;50.754;6.978;2022-08-03T07:47:05;28.10;85.60
39525;DHT22;25203;50.754;6.978;2022-08-03T07:49:06;28.30;83.80
39525;DHT22;25203;50.754;6.978;2022-08-03T07:51:06;28.50;84.80
39525;DHT22;25203;50.754;6.978;2022-08-03T07:53:07;28.60;84.30
39525;DHT22;25203;50.754;6.978;2022-08-03T07:55:08;28.80;83.30
39525;DHT22;25203;50.754;6.978;2022-08-03T07:57:09;29.10;83.10
39525;DHT22;25203;50.754;6.978;2022-08-03T07:59:10;29.10;80.60
39525;DHT22;25203;50.754;6.978;2022-08-03T08:01:11;29.40;81.80
39525;DHT22;25203;50.754;6.978;2022-08-03T08:03:11;29.60;80.60
39525;DHT22;25203;50.754;6.978;2022-08-03T08:05:12;29.80;79.10
39525;DHT22;25203;50.754;6.978;2022-08-03T08:07:13;30.00;78.60
39525;DHT22;25203;50.754;6.978;2022-08-03T08:09:14;30.20;75.70
39525;DHT22;25203;50.754;6.978;2022-08-03T08:11:14;30.00;75.40
39525;DHT22;25203;50.754;6.978;2022-08-03T08:13:15;29.80;75.10
39525;DHT22;25203;50.754;6.978;2022-08-03T08:15:16;29.80;75.30
39525;DHT22;25203;50.754;6.978;2022-08-03T08:17:16;29.80;75.10
39525;DHT22;25203;50.754;6.978;2022-08-03T08:19:17;30.00;74.50
39525;DHT22;25203;50.754;6.978;2022-08-03T08:21:18;30.10;74.60
39525;DHT22;25203;50.754;6.978;2022-08-03T08:23:19;30.40;74.70
39525;DHT22;25203;50.754;6.978;2022-08-03T08:25:22;30.60;74.00
39525;DHT22;25203;50.754;6.978;2022-08-03T08:27:23;30.80;73.40
39525;DHT22;25203;50.754;6.978;2022-08-03T08:29:24;31.10;74.10
39525;DHT22;25203;50.754;6.978;2022-08-03T08:31:24;31.20;72.60
39525;DHT22;25203;50.754;6.978;2022-08-03T08:33:25;31.30;71.90
39525;DHT22;25203;50.754;6.978;2022-08-03T08:35:26;31.20;70.10
39525;DHT22;25203;50.754;6.978;2022-08-03T08:37:26;30.90;70.10
39525;DHT22;25203;50.754;6.978;2022-08-03T08:39:27;30.90;70.00
39525;DHT22;25203;50.754;6.978;2022-08-03T08:41:28;31.00;69.90
39525;DHT22;25203;50.754;6.978;2022-08-03T08:43:28;31.10;69.80
39525;DHT22;25203;50.754;6.978;2022-08-03T08:45:29;31.40;69.90
39525;DHT22;25203;50.754;6.978;2022-08-03T08:47:31;31.40;69.60
39525;DHT22;25203;50.754;6.978;2022-08-03T08:49:35;31.60;67.60
39525;DHT22;25203;50.754;6.978;2022-08-03T08:51:39;31.80;68.10
39525;DHT22;25203;50.754;6.978;2022-08-03T08:53:46;32.00;67.40
39525;DHT22;25203;50.754;6.978;2022-08-03T08:55:47;32.00;66.20
39525;DHT22;25203;50.754;6.978;2022-08-03T08:57:52;32.10;66.40
39525;DHT22;25203;50.754;6.978;2022-08-03T08:59:55;32.30;65.90
39525;DHT22;25203;50.754;6.978;2022-08-03T09:01:56;32.40;64.70
39525;DHT22;25203;50.754;6.978;2022-08-03T09:03:58;32.60;64.60
39525;DHT22;25203;50.754;6.978;2022-08-03T09:06:18;32.60;64.20
39525;DHT22;25203;50.754;6.978;2022-08-03T09:08:19;32.80;63.10
39525;DHT22;25203;50.754;6.978;2022-08-03T09:10:21;32.50;63.10
39525;DHT22;25203;50.754;6.978;2022-08-03T09:12:21;32.10;63.40
39525;DHT22;25203;50.754;6.978;2022-08-03T09:14:22;31.60;63.30
39525;DHT22;25203;50.754;6.978;2022-08-03T09:16:23;31.30;63.80
39525;DHT22;25203;50.754;6.978;2022-08-03T09:18:32;31.40;64.80
39525;DHT22;25203;50.754;6.978;2022-08-03T09:20:33;31.40;62.30
39525;DHT22;25203;50.754;6.978;2022-08-03T09:22:51;31.50;63.30
39525;DHT22;25203;50.754;6.978;2022-08-03T09:24:58;31.90;63.40
39525;DHT22;25203;50.754;6.978;2022-08-03T09:26:59;32.30;62.90
39525;DHT22;25203;50.754;6.978;2022-08-03T09:29:05;32.60;63.40
39525;DHT22;25203;50.754;6.978;2022-08-03T09:31:06;33.00;63.90
39525;DHT22;25203;50.754;6.978;2022-08-03T09:33:09;33.00;60.00
39525;DHT22;25203;50.754;6.978;2022-08-03T09:35:11;32.80;60.60
39525;DHT22;25203;50.754;6.978;2022-08-03T09:37:13;33.00;61.40
39525;DHT22;25203;50.754;6.978;2022-08-03T09:39:25;33.20;61.30
39525;DHT22;25203;50.754;6.978;2022-08-03T09:41:26;33.40;61.60
39525;DHT22;25203;50.754;6.978;2022-08-03T09:43:27;33.40;60.10
39525;DHT22;25203;50.754;6.978;2022-08-03T09:45:28;33.40;60.10
39525;DHT22;25203;50.754;6.978;2022-08-03T09:47:33;33.00;58.50
39525;DHT22;25203;50.754;6.978;2022-08-03T09:49:38;32.70;59.70
39525;DHT22;25203;50.754;6.978;2022-08-03T09:51:39;32.60;59.50
39525;DHT22;25203;50.754;6.978;2022-08-03T09:53:44;32.40;59.20
39525;DHT22;25203;50.754;6.978;2022-08-03T09:55:54;32.40;60.00
39525;DHT22;25203;50.754;6.978;2022-08-03T09:58:05;32.50;59.10
39525;DHT22;25203;50.754;6.978;2022-08-03T10:00:14;32.60;60.00
39525;DHT22;25203;50.754;6.978;2022-08-03T10:02:23;32.50;59.60
39525;DHT22;25203;50.754;6.978;2022-08-03T10:04:25;32.30;60.00
39525;DHT22;25203;50.754;6.978;2022-08-03T10:06:26;32.30;61.20
39525;DHT22;25203;50.754;6.978;2022-08-03T10:08:26;32.30;60.30
39525;DHT22;25203;50.754;6.978;2022-08-03T10:10:44;32.30;60.50
39525;DHT22;25203;50.754;6.978;2022-08-03T10:12:45;32.40;59.80
39525;DHT22;25203;50.754;6.978;2022-08-03T10:14:48;32.50;60.30
39525;DHT22;25203;50.754;6.978;2022-08-03T10:16:49;32.70;59.60
39525;DHT22;25203;50.754;6.978;2022-08-03T10:18:50;32.90;59.00
39525;DHT22;25203;50.754;6.978;2022-08-03T10:20:58;33.20;59.90
39525;DHT22;25203;50.754;6.978;2022-08-03T10:23:02;33.70;59.10
39525;DHT22;25203;50.754;6.978;2022-08-03T10:25:08;33.90;59.00
39525;DHT22;25203;50.754;6.978;2022-08-03T10:27:12;33.80;58.30
39525;DHT22;25203;50.754;6.978;2022-08-03T10:29:20;33.70;58.30
39525;DHT22;25203;50.754;6.978;2022-08-03T10:31:24;33.60;58.40
39525;DHT22;25203;50.754;6.978;2022-08-03T10:33:31;33.50;57.70
39525;DHT22;25203;50.754;6.978;2022-08-03T10:35:36;33.60;57.50
39525;DHT22;25203;50.754;6.978;2022-08-03T10:37:43;33.40;58.10
39525;DHT22;25203;50.754;6.978;2022-08-03T10:39:44;33.20;58.30
39525;DHT22;25203;50.754;6.978;2022-08-03T10:41:56;33.00;58.40
39525;DHT22;25203;50.754;6.978;2022-08-03T10:44:03;32.80;58.00
39525;DHT22;25203;50.754;6.978;2022-08-03T10:46:06;33.00;57.20
39525;DHT22;25203;50.754;6.978;2022-08-03T10:48:08;33.20;58.20
39525;DHT22;25203;50.754;6.978;2022-08-03T10:50:09;33.40;57.00
39525;DHT22;25203;50.754;6.978;2022-08-03T10:52:10;33.60;56.80
39525;DHT22;25203;50.754;6.978;2022-08-03T10:54:46;33.60;58.00
39525;DHT22;25203;50.754;6.978;2022-08-03T10:57:05;33.80;57.00
39525;DHT22;25203;50.754;6.978;2022-08-03T11:01:53;34.50;56.40
39525;DHT22;25203;50.754;6.978;2022-08-03T11:06:17;34.30;55.20
39525;DHT22;25203;50.754;6.978;2022-08-03T11:10:31;33.10;55.50
39525;DHT22;25203;50.754;6.978;2022-08-03T11:12:32;32.80;56.80
39525;DHT22;25203;50.754;6.978;2022-08-03T11:14:45;32.90;57.30
39525;DHT22;25203;50.754;6.978;2022-08-03T11:16:49;33.20;56.60
39525;DHT22;25203;50.754;6.978;2022-08-03T11:19:00;33.50;56.90
39525;DHT22;25203;50.754;6.978;2022-08-03T11:21:01;33.90;55.30
39525;DHT22;25203;50.754;6.978;2022-08-03T11:23:01;34.20;55.50
39525;DHT22;25203;50.754;6.978;2022-08-03T11:25:02;34.60;56.10
39525;DHT22;25203;50.754;6.978;2022-08-03T11:27:20;34.80;55.40
39525;DHT22;25203;50.754;6.978;2022-08-03T11:29:28;34.80;54.80
39525;DHT22;25203;50.754;6.978;2022-08-03T11:33:33;34.40;54.60
39525;DHT22;25203;50.754;6.978;2022-08-03T11:35:34;34.40;55.30
39525;DHT22;25203;50.754;6.978;2022-08-03T11:39:57;34.60;55.00
39525;DHT22;25203;50.754;6.978;2022-08-03T11:41:58;34.70;55.10
39525;DHT22;25203;50.754;6.978;2022-08-03T11:43:58;35.00;55.00
39525;DHT22;25203;50.754;6.978;2022-08-03T11:48:20;35.20;52.70
39525;DHT22;25203;50.754;6.978;2022-08-03T11:50:21;35.10;52.50
39525;DHT22;25203;50.754;6.978;2022-08-03T11:52:24;35.00;53.70
39525;DHT22;25203;50.754;6.978;2022-08-03T11:54:25;35.00;53.00
39525;DHT22;25203;50.754;6.978;2022-08-03T11:56:26;35.30;52.30
39525;DHT22;25203;50.754;6.978;2022-08-03T11:58:28;36.00;53.30
39525;DHT22;25203;50.754;6.978;2022-08-03T12:00:30;37.30;52.20
39525;DHT22;25203;50.754;6.978;2022-08-03T12:02:31;38.80;51.10
39525;DHT22;25203;50.754;6.978;2022-08-03T12:04:52;39.90;49.10
39525;DHT22;25203;50.754;6.978;2022-08-03T12:06:59;40.50;48.80
39525;DHT22;25203;50.754;6.978;2022-08-03T12:09:00;40.70;48.70
39525;DHT22;25203;50.754;6.978;2022-08-03T12:11:03;40.50;49.20
39525;DHT22;25203;50.754;6.978;2022-08-03T12:13:06;40.30;48.30
39525;DHT22;25203;50.754;6.978;2022-08-03T12:15:08;40.30;49.00
39525;DHT22;25203;50.754;6.978;2022-08-03T12:17:09;41.10;47.80
39525;DHT22;25203;50.754;6.978;2022-08-03T12:19:10;41.50;46.50
39525;DHT22;25203;50.754;6.978;2022-08-03T12:21:11;41.80;46.80
39525;DHT22;25203;50.754;6.978;2022-08-03T12:23:12;41.80;46.10
39525;DHT22;25203;50.754;6.978;2022-08-03T12:25:24;42.00;46.50
39525;DHT22;25203;50.754;6.978;2022-08-03T12:27:26;42.50;47.20
39525;DHT22;25203;50.754;6.978;2022-08-03T12:29:29;42.60;45.60
39525;DHT22;25203;50.754;6.978;2022-08-03T12:31:30;42.40;45.70
39525;DHT22;25203;50.754;6.978;2022-08-03T12:33:31;42.00;46.00
39525;DHT22;25203;50.754;6.978;2022-08-03T12:35:32;42.20;45.80
39525;DHT22;25203;50.754;6.978;2022-08-03T12:37:33;42.40;45.80
39525;DHT22;25203;50.754;6.978;2022-08-03T12:39:33;42.10;44.80
39525;DHT22;25203;50.754;6.978;2022-08-03T12:41:37;41.60;45.20
39525;DHT22;25203;50.754;6.978;2022-08-03T12:43:49;40.90;45.40
39525;DHT22;25203;50.754;6.978;2022-08-03T12:45:50;40.60;45.60
39525;DHT22;25203;50.754;6.978;2022-08-03T12:47:54;39.70;46.70
39525;DHT22;25203;50.754;6.978;2022-08-03T12:49:55;38.90;46.10
39525;DHT22;25203;50.754;6.978;2022-08-03T12:51:58;37.60;47.30
39525;DHT22;25203;50.754;6.978;2022-08-03T12:54:00;37.30;47.60
39525;DHT22;25203;50.754;6.978;2022-08-03T12:56:02;37.20;48.20
39525;DHT22;25203;50.754;6.978;2022-08-03T12:58:05;37.20;48.90
39525;DHT22;25203;50.754;6.978;2022-08-03T13:00:14;37.10;49.80
39525;DHT22;25203;50.754;6.978;2022-08-03T13:02:21;36.50;47.80
39525;DHT22;25203;50.754;6.978;2022-08-03T13:04:29;36.40;49.50
39525;DHT22;25203;50.754;6.978;2022-08-03T13:06:30;36.50;48.80
39525;DHT22;25203;50.754;6.978;2022-08-03T13:08:30;36.30;48.20
39525;DHT22;25203;50.754;6.978;2022-08-03T13:10:32;36.00;49.10
39525;DHT22;25203;50.754;6.978;2022-08-03T13:12:48;36.20;49.30
39525;DHT22;25203;50.754;6.978;2022-08-03T13:14:51;35.90;49.20
39525;DHT22;25203;50.754;6.978;2022-08-03T13:16:51;35.60;49.60